Weather observations for the past three days for
Waterloo, Waterloo Municipal Airport
Imperial (Metric)
Date Time (cdt) Wind (mph) Vis. (mi.) Weather Sky Cond. Temperature (ºF) Relative Humidity Wind Chill (°F) Heat Index (°F) Pressure Precipitation (in)
Air Dwpt 6 hour altimeter (in) sea level (mb) 1 hr 3 hr 6 hr
Max. Min.
07 14:54 NW 13 G 22 10.00 Fair CLR 64 26.1 24% 29.83 1010.3
07 13:54 W 14 G 24 10.00 A Few Clouds FEW080 63 28 27% 29.84 1010.7
07 12:54 W 15 G 23 10.00 A Few Clouds FEW080 62.1 28.9 62.1 37.9 29% 29.84 1010.9
07 11:54 W 10 10.00 Fair CLR 59 28.9 32% 29.86 1011.5
07 10:54 W 5 10.00 Fair CLR 55.9 28.9 36% 29.87 1011.7
07 09:54 Vrbl 3 10.00 Fair CLR 51.1 30 45% 29.88 1012.1
07 08:54 E 7 10.00 Fair CLR 46.9 28.9 50% 44 29.88 1012.3
07 07:54 E 10 10.00 Overcast OVC095 42.1 28.9 60% 37 29.9 1012.9
07 06:54 E 6 10.00 Overcast FEW055 BKN075 OVC100 37.9 28 43 30.9 68% 34 29.9 1013.0
07 05:54 NE 9 10.00 Partly Cloudy SCT090 35.1 27 72% 29 29.9 1013.0
07 04:54 SE 3 10.00 Partly Cloudy SCT095 39.9 24.1 53% 29.91 1013.1
07 03:54 S 7 10.00 Fair CLR 42.1 25 51% 38 29.92 1013.7
07 02:54 S 8 10.00 Overcast OVC110 39.9 27 60% 35 29.94 1014.3
07 01:54 S 5 10.00 Mostly Cloudy BKN100 35.1 26.1 70% 32 29.97 1015.3
07 00:54 Calm 10.00 Fair CLR 32 26.1 52 32 79% 29.98 1016.0
06 23:54 Calm 10.00 Fair CLR 35.1 26.1 70% 29.98 1016.0
06 22:54 Calm 10.00 Fair CLR 37.9 25 60% 29.99 1016.2
06 21:54 Calm 10.00 Fair CLR 42.1 24.1 49% 29.99 1016.2
06 20:54 N 3 10.00 Fair CLR 45 21.9 40% 29.98 1015.9
06 19:54 NW 10 10.00 Fair CLR 48.9 21.9 35% 45 29.98 1015.9
06 18:54 NW 16 G 21 10.00 A Few Clouds FEW075 52 21.9 54 48 31% 29.98 1015.8
06 17:54 W 16 G 24 10.00 A Few Clouds FEW070 52 21.9 31% 29.99 1016.1
06 16:54 NW 18 G 25 10.00 Mostly Cloudy BKN070 52 23 32% 30 1016.3
06 15:54 NW 20 G 28 10.00 Mostly Cloudy BKN070 52 23 32% 30.01 1016.9
06 14:54 NW 18 G 32 10.00 Mostly Cloudy BKN070 50 23 35% 44 30.02 1017.2
06 13:54 NW 18 G 30 10.00 Overcast OVC070 51.1 23 33% 30.03 1017.4
06 12:54 NW 18 10.00 Overcast OVC070 48 21.9 51.1 36 36% 42 30.04 1017.7
06 11:54 W 22 G 30 10.00 Overcast and Breezy OVC065 48.9 21.9 35% 42 30.04 1017.6
06 10:54 NW 18 G 25 10.00 Overcast OVC065 48.9 24.1 38% 43 30.03 1017.5
06 09:54 NW 14 10.00 Overcast OVC070 46 24.1 42% 40 30.03 1017.4
06 08:54 NW 15 10.00 Fair CLR 44.1 24.1 45% 38 30.03 1017.3
06 07:54 NW 9 10.00 Partly Cloudy SCT070 41 26.1 55% 36 30.02 1016.9
06 06:54 W 6 10.00 Fair CLR 36 27 39 35.1 70% 32 29.99 1016.2
06 05:54 NW 7 10.00 Fair CLR 36 26.1 67% 31 29.97 1015.3
06 04:54 NW 6 10.00 Fair CLR 36 27 70% 32 29.97 1015.2
06 03:54 NW 7 10.00 Fair CLR 36 26.1 67% 31 29.95 1014.7
06 02:54 NW 7 10.00 Fair CLR 37 26.1 65% 32 29.94 1014.3
06 01:54 NW 7 10.00 Fair CLR 37.9 26.1 62% 33 29.94 1014.0
06 00:54 NW 6 10.00 Fair CLR 37 27 53.1 37 67% 33 29.92 1013.7
05 23:54 NW 6 10.00 Fair CLR 39.9 26.1 58% 36 29.91 1013.2
05 22:54 NW 7 10.00 Fair CLR 39.9 26.1 58% 36 29.89 1012.6
05 21:54 NW 5 10.00 Fair CLR 45 26.1 48% 43 29.89 1012.4
05 20:54 N 7 10.00 Fair CLR 46.9 25 42% 44 29.87 1011.8
05 19:54 N 13 10.00 Fair CLR 51.1 23 33% 29.84 1010.8
05 18:54 N 18 G 26 10.00 Fair CLR 53.1 23 60.1 53.1 31% 29.82 1010.2
05 17:54 NW 21 G 26 10.00 Mostly Cloudy and Breezy BKN085 55.9 23 28% 29.81 1009.7
05 16:54 N 14 G 25 10.00 Mostly Cloudy BKN080 57.9 26.1 29% 29.81 1009.7
05 15:54 NW 12 G 24 9.00 Partly Cloudy SCT085 57.9 24.1 27% 29.81 1009.7
05 14:54 N 13 G 22 10.00 A Few Clouds FEW080 57.9 26.1 29% 29.83 1010.2
05 13:54 NW 8 G 22 10.00 A Few Clouds FEW080 57 26.1 30% 29.84 1010.7
05 12:54 W 7 G 21 10.00 Partly Cloudy SCT070 55 24.1 55.9 39.9 30% 29.86 1011.3
05 11:54 W 9 10.00 Mostly Cloudy BKN065 53.1 25 34% 29.86 1011.4
05 10:54 N 5 10.00 Partly Cloudy SCT060 52 25 35% 29.87 1011.5
05 09:54 N 7 10.00 Fair CLR 51.1 27 39% 29.86 1011.4
05 08:54 N 6 10.00 Fair CLR 48.9 27 43% 47 29.85 1010.7
05 07:54 W 3 10.00 Fair CLR 46.9 28.9 50% 29.86 1011.2
05 06:54 W 6 10.00 Fair CLR 39.9 28.9 48.9 37 65% 36 29.84 1010.6
05 05:54 NW 7 10.00 Fair CLR 39.9 28 63% 36 29.8 1009.3
05 04:54 W 3 10.00 Fair CLR 42.1 27 55% 29.79 1008.7
05 03:54 NW 6 10.00 Fair CLR 43 27 53% 40 29.76 1007.6
05 02:54 NW 6 10.00 Fair CLR 44.1 26.1 49% 41 29.75 1007.3
05 01:54 NW 9 10.00 Fair CLR 45 26.1 48% 41 29.75 1007.3
05 00:54 N 15 G 23 10.00 Fair CLR 48.9 25 64 48.9 39% 44 29.75 1007.0
04 23:54 N 22 G 29 10.00 Fair and Breezy CLR 51.1 26.1 38% 29.72 1006.0
04 22:54 NW 21 G 30 10.00 Fair and Breezy CLR 53.1 28.9 40% 29.71 1005.7
04 21:54 NW 21 G 35 10.00 Fair and Breezy CLR 55 30 38% 29.69 1005.3
04 20:54 NW 14 10.00 Partly Cloudy SCT120 59 27 29% 29.64 1003.4
04 19:54 NW 24 G 33 10.00 Fair and Breezy CLR 60.1 27 28% 29.61 1002.5
04 18:54 NW 22 G 32 10.00 Fair and Breezy CLR 64 28.9 80.1 64 27% 29.6 1002.2
04 17:54 NW 25 G 37 10.00 Fair and Breezy CLR 68 32 26% 29.57 1001.3
04 16:54 NW 24 G 35 10.00 Fair and Breezy CLR 72 34 25% 29.54 1000.2
04 15:54 NW 21 G 35 10.00 Fair and Breezy CLR 75 35.1 23% 76 29.52 999.3
Date Time (cdt) Wind (mph) Vis. (mi.) Weather Sky Cond. Air Dwpt Max. Min. Relative Humidity Wind Chill (°F) Heat Index (°F) altimeter (in) sea level (mb) 1 hr 3 hr 6 hr
6 hour
Temperature (ºF) Pressure Precipitation (in)